Time;durP1;ratioP1;P1;durP2;ratioP2;P2;SDS_P1;SDS_P2;PMS_P1;PMS_P2;Temp;Humidity;BMP_temperature;BMP_pressure;BME280_temperature;BME280_humidity;BME280_pressure;Samples;Min_cycle;Max_cycle;Signal;HPM_P1;HPM_P2
2022/04/09 00:01:16;;;;;;;1.40;1.30;;;8.50;99.90;;;;;;5052502;28;20472;-47
2022/04/09 00:03:43;;;;;;;2.23;1.70;;;8.10;99.90;;;;;;5052696;28;20506;-44
2022/04/09 00:06:11;;;;;;;2.20;1.80;;;8.00;99.90;;;;;;5052396;28;20528;-44
2022/04/09 00:08:38;;;;;;;2.87;2.30;;;7.90;99.90;;;;;;5052760;28;20437;-44
2022/04/09 00:11:06;;;;;;;1.90;1.60;;;8.20;99.90;;;;;;5052235;28;20461;-44
2022/04/09 00:13:32;;;;;;;3.90;1.77;;;8.40;99.90;;;;;;5052305;28;20446;-45
2022/04/09 00:15:59;;;;;;;2.17;1.40;;;8.70;99.90;;;;;;5051957;28;20532;-50
2022/04/09 00:18:26;;;;;;;1.40;1.07;;;8.90;99.90;;;;;;5052463;28;20580;-47
2022/04/09 00:20:55;;;;;;;2.10;1.50;;;8.90;99.90;;;;;;5052040;28;20535;-43
2022/04/09 00:23:24;;;;;;;2.17;1.63;;;8.20;99.90;;;;;;5052151;28;20453;-44
2022/04/09 00:25:51;;;;;;;1.40;1.30;;;8.20;99.90;;;;;;5051061;28;20441;-44
2022/04/09 00:28:18;;;;;;;4.07;1.50;;;8.40;99.90;;;;;;5052351;28;20441;-44
2022/04/09 00:30:45;;;;;;;1.97;1.63;;;8.60;99.90;;;;;;5051870;28;20526;-48
2022/04/09 00:33:12;;;;;;;1.60;1.50;;;8.80;99.90;;;;;;5052225;28;20481;-44
2022/04/09 00:35:39;;;;;;;1.97;1.50;;;8.80;99.90;;;;;;5051972;28;20449;-44
2022/04/09 00:38:06;;;;;;;4.23;2.40;;;9.00;99.90;;;;;;5051786;28;20567;-44
2022/04/09 00:40:34;;;;;;;3.80;2.00;;;9.10;99.90;;;;;;5051536;28;20499;-44
2022/04/09 00:43:01;;;;;;;2.53;1.50;;;9.00;99.90;;;;;;5051862;28;20830;-43
2022/04/09 00:45:28;;;;;;;1.60;1.37;;;8.40;99.90;;;;;;5052056;28;20484;-44
2022/04/09 00:47:56;;;;;;;3.00;1.80;;;8.40;99.90;;;;;;5051788;28;20833;-44
2022/04/09 00:50:23;;;;;;;1.70;1.60;;;8.50;99.90;;;;;;5051577;28;20437;-46
2022/04/09 00:52:51;;;;;;;2.20;1.97;;;8.70;99.90;;;;;;5051439;28;20543;-44
2022/04/09 00:56:12;;;;;;;2.37;1.57;;;8.90;99.90;;;;;;5051926;28;20469;-43
2022/04/09 00:58:14;;;;;;;2.67;1.93;;;9.00;99.90;;;;;;5051547;28;20484;-44
2022/04/09 01:00:42;;;;;;;2.17;1.47;;;9.20;99.90;;;;;;5051248;28;20988;-48
2022/04/09 01:03:11;;;;;;;2.13;1.70;;;9.30;99.90;;;;;;5051687;28;20964;-45
2022/04/09 01:05:38;;;;;;;2.43;2.23;;;9.40;99.90;;;;;;5051432;28;20448;-44
2022/04/09 01:08:06;;;;;;;1.70;1.60;;;9.40;99.90;;;;;;5051298;28;20868;-49
2022/04/09 01:10:33;;;;;;;2.53;1.43;;;9.50;99.90;;;;;;5051157;28;20855;-45
2022/04/09 01:13:01;;;;;;;2.10;1.77;;;9.60;99.90;;;;;;5051137;28;20492;-48
2022/04/09 01:15:29;;;;;;;2.87;2.13;;;9.60;99.90;;;;;;5051467;28;20441;-45
2022/04/09 01:17:57;;;;;;;1.80;1.60;;;9.70;99.90;;;;;;5051007;28;20474;-44
2022/04/09 01:20:26;;;;;;;1.70;1.60;;;9.70;99.90;;;;;;5051006;28;20449;-44
2022/04/09 01:22:55;;;;;;;2.40;1.50;;;9.70;99.90;;;;;;5051221;28;20486;-44
2022/04/09 01:25:22;;;;;;;2.40;1.77;;;9.80;99.90;;;;;;5050924;28;20445;-45
2022/04/09 01:27:50;;;;;;;2.00;1.60;;;9.80;99.90;;;;;;5051204;28;20441;-44
2022/04/09 01:30:18;;;;;;;2.90;1.73;;;9.90;99.90;;;;;;5050761;28;20937;-47
2022/04/09 01:32:45;;;;;;;1.97;1.80;;;9.90;99.90;;;;;;5120691;22;20516;-45
2022/04/09 01:35:13;;;;;;;2.77;1.93;;;10.00;99.90;;;;;;5070986;28;20542;-46
2022/04/09 01:37:40;;;;;;;2.47;2.00;;;10.00;99.90;;;;;;5070908;28;20566;-43
2022/04/09 01:40:10;;;;;;;2.30;1.87;;;10.00;99.90;;;;;;5070992;28;20501;-43
2022/04/09 01:42:37;;;;;;;1.97;1.80;;;10.10;99.90;;;;;;5071016;28;20492;-44
2022/04/09 01:45:04;;;;;;;2.30;2.10;;;10.10;99.90;;;;;;5071014;28;20451;-46
2022/04/09 01:47:31;;;;;;;2.03;1.87;;;10.20;99.90;;;;;;5070980;28;20514;-44
2022/04/09 01:49:58;;;;;;;2.23;1.97;;;10.10;99.90;;;;;;5070733;28;20510;-44
2022/04/09 01:52:25;;;;;;;1.77;1.63;;;10.20;99.90;;;;;;5070970;28;20458;-43
2022/04/09 01:54:52;;;;;;;1.97;1.77;;;10.20;99.90;;;;;;5070835;28;20444;-46
2022/04/09 01:57:21;;;;;;;2.30;1.80;;;10.30;99.90;;;;;;5070832;28;20537;-44
2022/04/09 01:59:48;;;;;;;2.37;2.17;;;10.30;99.90;;;;;;5070808;28;20452;-44
2022/04/09 02:02:14;;;;;;;2.83;2.10;;;10.30;99.90;;;;;;5070850;28;20526;-48
2022/04/09 02:04:41;;;;;;;2.20;2.00;;;10.20;99.90;;;;;;5070778;28;20570;-44
2022/04/09 02:07:08;;;;;;;3.10;2.20;;;10.20;99.90;;;;;;5070471;28;20532;-43
2022/04/09 02:09:35;;;;;;;3.80;2.57;;;9.90;99.90;;;;;;5070303;28;20498;-44
2022/04/09 02:12:03;;;;;;;2.97;2.50;;;9.50;99.90;;;;;;5070841;28;20495;-43
2022/04/09 02:14:31;;;;;;;2.20;2.00;;;9.00;99.90;;;;;;5070269;28;20436;-46
2022/04/09 02:16:58;;;;;;;2.80;2.50;;;8.80;99.90;;;;;;5070221;28;21101;-44
2022/04/09 02:19:25;;;;;;;3.83;3.10;;;8.80;99.90;;;;;;5070519;28;20444;-43
2022/04/09 02:21:51;;;;;;;3.47;3.17;;;8.70;99.90;;;;;;5070343;28;20547;-43
2022/04/09 02:24:18;;;;;;;3.60;3.30;;;8.80;99.90;;;;;;5070245;28;20978;-44
2022/04/09 02:26:45;;;;;;;4.10;2.90;;;8.90;99.90;;;;;;5070619;28;20848;-44
2022/04/09 02:29:12;;;;;;;3.20;2.90;;;9.00;99.90;;;;;;5070170;28;20436;-48
2022/04/09 02:31:41;;;;;;;2.80;2.60;;;9.10;99.90;;;;;;5070143;28;20475;-44
2022/04/09 02:34:08;;;;;;;3.53;2.80;;;9.20;99.90;;;;;;5070692;28;20510;-44
2022/04/09 02:36:36;;;;;;;3.27;2.87;;;9.20;99.90;;;;;;5070774;28;20476;-44
2022/04/09 02:39:03;;;;;;;3.27;3.00;;;9.30;99.90;;;;;;5070492;28;20780;-43
2022/04/09 02:41:30;;;;;;;4.10;3.00;;;9.40;99.90;;;;;;5070356;28;20459;-43
2022/04/09 02:43:57;;;;;;;2.67;2.47;;;9.50;99.90;;;;;;5070454;28;20445;-44
2022/04/09 02:46:25;;;;;;;2.53;2.33;;;9.60;99.90;;;;;;5070516;28;20941;-44
2022/04/09 02:48:53;;;;;;;3.10;2.43;;;9.70;99.90;;;;;;5072513;28;20444;-52
2022/04/09 02:51:20;;;;;;;2.73;2.50;;;9.70;99.90;;;;;;5074056;28;20448;-45
2022/04/09 02:53:47;;;;;;;2.50;2.30;;;9.90;99.90;;;;;;5073881;28;20491;-43
2022/04/09 02:56:14;;;;;;;2.77;2.33;;;9.90;99.90;;;;;;5073845;28;20451;-43
2022/04/09 02:58:41;;;;;;;3.23;2.93;;;10.00;99.90;;;;;;5073613;28;20487;-44
2022/04/09 03:01:08;;;;;;;3.60;2.93;;;10.10;99.90;;;;;;5073361;28;20440;-44
2022/04/09 03:03:35;;;;;;;5.77;2.93;;;10.00;99.90;;;;;;5073710;28;20539;-44
2022/04/09 03:06:03;;;;;;;3.10;2.90;;;9.60;99.90;;;;;;5073684;28;20497;-46
2022/04/09 03:08:30;;;;;;;4.90;2.80;;;9.10;99.90;;;;;;5073632;28;20494;-44
2022/04/09 03:10:57;;;;;;;3.00;2.57;;;9.10;99.90;;;;;;5073753;28;20483;-48
2022/04/09 03:13:24;;;;;;;3.10;2.90;;;9.30;99.90;;;;;;5073136;28;20543;-44
2022/04/09 03:15:51;;;;;;;2.87;2.63;;;9.40;99.90;;;;;;5073486;28;20444;-43
2022/04/09 03:18:18;;;;;;;2.60;2.40;;;9.10;99.90;;;;;;5073126;28;20512;-44
2022/04/09 03:20:45;;;;;;;2.90;2.70;;;8.90;99.90;;;;;;5073063;28;20510;-43
2022/04/09 03:23:13;;;;;;;3.73;3.43;;;8.80;99.90;;;;;;5073379;28;20461;-48
2022/04/09 03:25:40;;;;;;;3.17;2.97;;;8.70;99.90;;;;;;5073127;28;20528;-47
2022/04/09 03:28:07;;;;;;;3.57;3.30;;;8.50;99.90;;;;;;5072983;28;20514;-43
2022/04/09 03:30:34;;;;;;;3.90;2.70;;;8.60;99.90;;;;;;5073040;28;20480;-48
2022/04/09 03:33:01;;;;;;;3.67;3.37;;;8.70;99.90;;;;;;5072836;28;20476;-43
2022/04/09 03:35:28;;;;;;;4.00;2.83;;;8.80;99.90;;;;;;5073241;28;20517;-44
2022/04/09 03:37:56;;;;;;;4.47;3.40;;;9.00;99.90;;;;;;5073015;28;20468;-44
2022/04/09 03:40:24;;;;;;;3.13;2.83;;;9.00;99.90;;;;;;5072941;28;20482;-45
2022/04/09 03:42:51;;;;;;;3.07;2.73;;;9.20;99.90;;;;;;5072913;28;20813;-44
2022/04/09 03:45:18;;;;;;;2.77;2.57;;;9.30;99.90;;;;;;5072859;28;20484;-46
2022/04/09 03:47:46;;;;;;;3.80;3.50;;;9.30;99.90;;;;;;5072795;28;20437;-46
2022/04/09 03:50:13;;;;;;;6.13;2.83;;;9.20;99.90;;;;;;5072482;28;20527;-43
2022/04/09 03:52:40;;;;;;;2.70;1.40;;;8.70;99.90;;;;;;5072477;28;20503;-45
2022/04/09 03:55:08;;;;;;;3.00;1.60;;;8.60;99.90;;;;;;5072570;28;20440;-43
2022/04/09 03:57:36;;;;;;;1.50;1.20;;;8.60;99.90;;;;;;5072657;28;20447;-43
2022/04/09 04:00:04;;;;;;;199.27;19.17;;;8.30;99.90;;;;;;5071237;28;20476;-44
2022/04/09 04:02:31;;;;;;;8.00;1.40;;;7.80;99.90;;;;;;5072441;28;21011;-45
2022/04/09 04:05:02;;;;;;;5.93;0.90;;;7.10;99.90;;;;;;5072524;28;20501;-44
2022/04/09 04:07:29;;;;;;;0.90;0.60;;;6.60;99.90;;;;;;5072437;28;20535;-45
2022/04/09 04:09:56;;;;;;;0.80;0.50;;;6.20;99.90;;;;;;5072455;28;20468;-44
2022/04/09 04:12:24;;;;;;;1.67;0.50;;;5.90;99.90;;;;;;5072455;28;20495;-43
2022/04/09 04:14:52;;;;;;;1.60;0.60;;;5.80;99.90;;;;;;5072634;28;20453;-45
2022/04/09 04:17:19;;;;;;;0.67;0.47;;;5.60;99.90;;;;;;5071435;28;20444;-44
2022/04/09 04:19:46;;;;;;;0.60;0.50;;;5.60;99.90;;;;;;5071962;28;20475;-44
2022/04/09 04:22:14;;;;;;;1.43;0.57;;;5.60;99.90;;;;;;5072206;28;20866;-47
2022/04/09 04:24:41;;;;;;;0.70;0.30;;;5.60;99.90;;;;;;5072408;28;20569;-43
2022/04/09 04:27:08;;;;;;;1.23;0.50;;;5.40;99.90;;;;;;5072092;28;20469;-45
2022/04/09 04:29:35;;;;;;;0.60;0.50;;;5.30;99.90;;;;;;5071939;28;20470;-44
2022/04/09 04:32:04;;;;;;;0.60;0.53;;;5.30;99.90;;;;;;5071744;28;20906;-44
2022/04/09 04:34:31;;;;;;;0.60;0.43;;;5.20;99.90;;;;;;5072328;28;20447;-44
2022/04/09 04:36:58;;;;;;;0.50;0.30;;;5.10;99.90;;;;;;5071881;28;20481;-44
2022/04/09 04:39:25;;;;;;;0.60;0.40;;;5.20;99.90;;;;;;5071387;28;20916;-44
2022/04/09 04:41:52;;;;;;;0.60;0.50;;;5.30;99.90;;;;;;5071871;28;20489;-44
2022/04/09 04:44:19;;;;;;;0.60;0.40;;;5.40;99.90;;;;;;5072248;28;20499;-47
2022/04/09 04:46:45;;;;;;;0.73;0.60;;;5.40;99.90;;;;;;5071770;28;20443;-44
2022/04/09 04:49:14;;;;;;;0.70;0.60;;;5.50;99.90;;;;;;5071443;28;20434;-45
2022/04/09 04:51:41;;;;;;;1.37;0.40;;;5.40;99.90;;;;;;5071812;28;20558;-46
2022/04/09 04:54:08;;;;;;;0.60;0.50;;;5.50;99.90;;;;;;5071523;28;20535;-45
2022/04/09 04:56:34;;;;;;;0.60;0.50;;;5.60;99.90;;;;;;5071551;28;20979;-44
2022/04/09 04:59:01;;;;;;;0.87;0.60;;;5.70;99.90;;;;;;5071237;28;20473;-48
2022/04/09 05:01:28;;;;;;;0.60;0.40;;;5.70;99.90;;;;;;5071484;28;20467;-44
2022/04/09 05:03:55;;;;;;;0.60;0.50;;;5.60;99.90;;;;;;5071290;28;20508;-44
2022/04/09 05:06:24;;;;;;;0.70;0.50;;;5.60;99.90;;;;;;5071677;28;20447;-46
2022/04/09 05:08:50;;;;;;;0.60;0.43;;;5.50;99.90;;;;;;5071564;28;20471;-45
2022/04/09 05:11:17;;;;;;;1.23;0.60;;;5.40;99.90;;;;;;5070961;28;20448;-44
2022/04/09 05:13:44;;;;;;;0.57;0.37;;;5.50;99.90;;;;;;5071131;28;20452;-48
2022/04/09 05:16:11;;;;;;;1.10;0.60;;;5.50;99.90;;;;;;5070938;28;20866;-44
2022/04/09 05:18:38;;;;;;;0.60;0.40;;;5.40;99.90;;;;;;5071203;28;20561;-44
2022/04/09 05:21:05;;;;;;;0.60;0.40;;;5.50;99.90;;;;;;5070899;28;20436;-46
2022/04/09 05:23:33;;;;;;;0.60;0.60;;;5.40;99.90;;;;;;5071174;28;20519;-45
2022/04/09 05:26:00;;;;;;;0.60;0.40;;;5.30;99.90;;;;;;5070949;28;20487;-44
2022/04/09 05:28:27;;;;;;;0.60;0.50;;;5.30;99.90;;;;;;5071083;28;20485;-49
2022/04/09 05:30:54;;;;;;;0.70;0.50;;;5.30;99.90;;;;;;5071164;28;20482;-45
2022/04/09 05:33:21;;;;;;;0.67;0.60;;;5.20;99.90;;;;;;5070821;28;20475;-44
2022/04/09 05:35:49;;;;;;;1.70;1.30;;;5.20;99.90;;;;;;5070900;28;20530;-44
2022/04/09 05:38:16;;;;;;;0.60;0.40;;;5.20;99.90;;;;;;5070883;28;20945;-48
2022/04/09 05:40:44;;;;;;;0.77;0.50;;;5.20;99.90;;;;;;5071287;28;20443;-45
2022/04/09 05:43:11;;;;;;;0.60;0.30;;;5.10;99.90;;;;;;5071143;28;20525;-44
2022/04/09 05:45:38;;;;;;;0.70;0.50;;;5.20;99.90;;;;;;5071152;28;20443;-49
2022/04/09 05:48:05;;;;;;;0.60;0.43;;;5.20;99.90;;;;;;5071144;28;20565;-44
2022/04/09 05:50:32;;;;;;;0.60;0.50;;;5.20;99.90;;;;;;5070725;28;20789;-44
2022/04/09 05:52:59;;;;;;;0.97;0.50;;;5.30;99.90;;;;;;5070867;28;20561;-45
2022/04/09 05:55:26;;;;;;;0.63;0.50;;;5.30;99.90;;;;;;5071228;28;20503;-47
2022/04/09 05:57:55;;;;;;;0.60;0.40;;;5.30;99.90;;;;;;5070930;28;20447;-48
2022/04/09 06:00:22;;;;;;;0.57;0.40;;;5.20;99.90;;;;;;5070416;28;20545;-46
2022/04/09 06:02:49;;;;;;;0.60;0.50;;;5.20;99.90;;;;;;5070640;28;20462;-44
2022/04/09 06:05:16;;;;;;;0.90;0.70;;;5.20;99.90;;;;;;5070708;28;20527;-50
2022/04/09 06:07:43;;;;;;;1.07;0.77;;;5.20;99.90;;;;;;5071053;28;20467;-45
2022/04/09 06:10:13;;;;;;;0.73;0.53;;;5.30;99.90;;;;;;5070650;28;20801;-44
2022/04/09 06:12:40;;;;;;;2.10;0.77;;;5.30;99.90;;;;;;5070819;28;20471;-45
2022/04/09 06:15:10;;;;;;;0.67;0.43;;;5.20;99.90;;;;;;5070402;28;20480;-44
2022/04/09 06:17:37;;;;;;;0.70;0.50;;;5.20;99.90;;;;;;5070279;28;20443;-45
2022/04/09 06:20:06;;;;;;;0.87;0.63;;;5.10;99.90;;;;;;5070468;28;20572;-48
2022/04/09 06:22:33;;;;;;;0.70;0.60;;;5.10;99.90;;;;;;5070951;28;20464;-47
2022/04/09 06:25:00;;;;;;;0.60;0.50;;;5.00;99.90;;;;;;5074326;28;20444;-44
2022/04/09 06:27:27;;;;;;;1.47;0.57;;;5.20;99.90;;;;;;5074019;28;20884;-44
2022/04/09 06:29:54;;;;;;;0.70;0.60;;;5.30;99.90;;;;;;5074354;28;20436;-44
2022/04/09 06:32:22;;;;;;;0.70;0.50;;;5.30;99.90;;;;;;5073900;28;20894;-45
2022/04/09 06:34:49;;;;;;;0.60;0.50;;;5.20;99.90;;;;;;5074344;28;20475;-44
2022/04/09 06:37:16;;;;;;;1.57;1.47;;;5.30;99.90;;;;;;5074274;28;20486;-45
2022/04/09 06:39:43;;;;;;;1.63;1.53;;;5.40;99.90;;;;;;5074057;28;20514;-44
2022/04/09 06:42:10;;;;;;;0.60;0.50;;;5.50;99.90;;;;;;5073806;28;20891;-49
2022/04/09 06:44:37;;;;;;;0.60;0.50;;;5.30;99.90;;;;;;5074265;28;20475;-46
2022/04/09 06:47:08;;;;;;;1.10;0.60;;;5.50;99.90;;;;;;5074288;28;20444;-47
2022/04/09 06:49:37;;;;;;;0.70;0.50;;;5.30;99.90;;;;;;5073915;28;20480;-45
2022/04/09 06:52:05;;;;;;;0.60;0.40;;;5.10;99.90;;;;;;5073800;28;20462;-48
2022/04/09 06:54:32;;;;;;;1.83;0.70;;;5.00;99.90;;;;;;5073835;28;20481;-44
2022/04/09 06:56:59;;;;;;;0.60;0.40;;;5.00;99.90;;;;;;5073733;28;20439;-46
2022/04/09 06:59:26;;;;;;;0.90;0.73;;;5.10;99.90;;;;;;5073922;28;20931;-44
2022/04/09 07:01:53;;;;;;;0.93;0.60;;;5.10;99.90;;;;;;5073760;28;20532;-48
2022/04/09 07:04:20;;;;;;;0.50;0.30;;;5.00;99.90;;;;;;5073590;28;20942;-44
2022/04/09 07:06:48;;;;;;;0.60;0.50;;;4.90;99.90;;;;;;5072899;28;20480;-47
2022/04/09 07:09:15;;;;;;;0.80;0.67;;;4.80;99.90;;;;;;5072544;28;20695;-45
2022/04/09 07:11:42;;;;;;;0.60;0.50;;;4.70;99.90;;;;;;5073266;28;20529;-45
2022/04/09 07:14:09;;;;;;;0.80;0.60;;;4.90;99.90;;;;;;5073440;28;20547;-44
2022/04/09 07:16:36;;;;;;;0.80;0.60;;;4.90;99.90;;;;;;5073192;28;20447;-44
2022/04/09 07:19:03;;;;;;;0.60;0.50;;;4.90;99.90;;;;;;5073117;28;20575;-47
2022/04/09 07:21:30;;;;;;;0.80;0.70;;;4.90;99.90;;;;;;5073425;28;20555;-44
2022/04/09 07:23:58;;;;;;;0.90;0.80;;;5.10;99.90;;;;;;5072757;28;20444;-45
2022/04/09 07:26:25;;;;;;;0.60;0.57;;;4.90;99.90;;;;;;5073207;28;20503;-45
2022/04/09 07:28:53;;;;;;;1.30;0.80;;;4.90;99.90;;;;;;5073048;28;20976;-45
2022/04/09 07:31:21;;;;;;;0.80;0.70;;;5.00;99.90;;;;;;5073101;28;20876;-48
2022/04/09 07:33:48;;;;;;;0.70;0.70;;;4.90;99.90;;;;;;5114603;22;20524;-47
2022/04/09 07:36:15;;;;;;;0.90;0.60;;;4.80;99.90;;;;;;5053014;28;20856;-47
2022/04/09 07:38:42;;;;;;;2.33;0.90;;;4.90;99.90;;;;;;5052903;28;20532;-46
2022/04/09 07:41:10;;;;;;;1.27;1.17;;;4.90;99.90;;;;;;5052738;28;20444;-45
2022/04/09 07:43:37;;;;;;;0.77;0.70;;;5.00;99.90;;;;;;5052935;28;20522;-44
2022/04/09 07:46:04;;;;;;;0.90;0.90;;;5.00;99.90;;;;;;5052922;28;20941;-48
2022/04/09 07:48:31;;;;;;;0.97;0.80;;;4.90;99.90;;;;;;5052421;28;20444;-44
2022/04/09 07:50:58;;;;;;;1.07;0.97;;;5.00;99.90;;;;;;5052868;28;20530;-44
2022/04/09 07:53:25;;;;;;;1.03;0.93;;;4.90;99.90;;;;;;5052606;28;20551;-47
2022/04/09 07:55:52;;;;;;;1.00;0.90;;;4.90;99.90;;;;;;5052673;28;20450;-44
2022/04/09 07:58:20;;;;;;;1.33;0.87;;;4.90;99.90;;;;;;5052563;28;21027;-44
2022/04/09 08:00:47;;;;;;;1.20;1.00;;;5.00;99.90;;;;;;5052283;28;20513;-48
2022/04/09 08:03:14;;;;;;;1.13;1.03;;;5.00;99.90;;;;;;5052716;28;20512;-44
2022/04/09 08:05:41;;;;;;;1.10;0.90;;;5.00;99.90;;;;;;5052654;28;20456;-44
2022/04/09 08:08:08;;;;;;;1.20;0.97;;;5.00;99.90;;;;;;5052202;28;20531;-45
2022/04/09 08:10:37;;;;;;;1.40;1.30;;;4.80;99.90;;;;;;5052325;28;20475;-44
2022/04/09 08:13:04;;;;;;;0.80;0.73;;;4.90;99.90;;;;;;5052544;28;20467;-46
2022/04/09 08:15:33;;;;;;;1.10;1.00;;;4.90;99.90;;;;;;5052411;28;20453;-44
2022/04/09 08:18:00;;;;;;;1.13;1.03;;;5.00;99.90;;;;;;5052132;28;21024;-45
2022/04/09 08:20:27;;;;;;;3.00;1.20;;;5.00;99.90;;;;;;5051703;28;20552;-44
2022/04/09 08:22:54;;;;;;;1.13;1.00;;;5.00;99.90;;;;;;5052304;28;20546;-44
2022/04/09 08:25:21;;;;;;;1.37;1.27;;;5.10;99.90;;;;;;5052053;28;20448;-45
2022/04/09 08:27:51;;;;;;;1.20;1.00;;;5.10;99.90;;;;;;5051817;28;20970;-45
2022/04/09 08:30:18;;;;;;;1.03;0.93;;;5.10;99.90;;;;;;5051937;28;20511;-44
2022/04/09 08:32:47;;;;;;;1.20;1.10;;;5.20;99.90;;;;;;5051567;28;20472;-49
2022/04/09 08:35:14;;;;;;;1.40;1.30;;;5.20;99.90;;;;;;5052154;28;20444;-45
2022/04/09 08:37:41;;;;;;;1.30;1.20;;;5.20;99.90;;;;;;5051691;28;20478;-44
2022/04/09 08:40:13;;;;;;;1.27;1.17;;;5.50;99.90;;;;;;5051758;28;20476;-45
2022/04/09 08:42:40;;;;;;;1.70;1.60;;;5.60;99.90;;;;;;5051733;28;20496;-49
2022/04/09 08:45:08;;;;;;;2.17;1.97;;;5.60;99.90;;;;;;5051536;28;20538;-44
2022/04/09 08:47:36;;;;;;;2.70;1.80;;;5.70;99.90;;;;;;5051631;28;20447;-46
2022/04/09 08:50:06;;;;;;;2.60;1.97;;;5.80;99.90;;;;;;5051819;28;20455;-47
2022/04/09 08:52:34;;;;;;;1.87;1.77;;;6.00;99.90;;;;;;5051707;28;20499;-44
2022/04/09 08:55:02;;;;;;;1.53;1.43;;;6.10;99.90;;;;;;5051053;28;20471;-45
2022/04/09 08:57:29;;;;;;;1.77;1.57;;;6.10;99.90;;;;;;5051017;28;20503;-49
2022/04/09 08:59:56;;;;;;;1.80;1.70;;;5.90;99.90;;;;;;5051322;28;20499;-45
2022/04/09 09:02:24;;;;;;;2.00;1.87;;;5.90;99.90;;;;;;5051486;28;20496;-45
2022/04/09 09:04:51;;;;;;;1.80;1.70;;;5.90;99.90;;;;;;5051553;28;20474;-45
2022/04/09 09:07:22;;;;;;;2.10;1.60;;;6.00;99.90;;;;;;5051138;28;20510;-46
2022/04/09 09:09:50;;;;;;;1.70;1.60;;;6.10;99.90;;;;;;5050984;28;20524;-44
2022/04/09 09:12:35;;;;;;;4.23;2.90;;;6.20;99.90;;;;;;5051268;28;20469;-44
2022/04/09 09:15:06;;;;;;;1.53;1.40;;;6.50;99.90;;;;;;5050707;28;20480;-45
2022/04/09 09:17:33;;;;;;;2.23;1.80;;;6.20;99.90;;;;;;5050571;28;20473;-46
2022/04/09 09:20:00;;;;;;;1.70;1.60;;;6.30;99.90;;;;;;5050451;28;20560;-44
2022/04/09 09:22:39;;;;;;;11.67;6.70;;;6.40;99.90;;;;;;5051151;28;20497;-46
2022/04/09 09:25:08;;;;;;;2.23;1.93;;;6.90;99.90;;;;;;5050868;28;20475;-44
2022/04/09 09:27:35;;;;;;;32.83;14.77;;;7.10;99.90;;;;;;5051095;28;20445;-46
2022/04/09 09:30:02;;;;;;;1.90;1.80;;;7.00;99.90;;;;;;5050748;28;20437;-45
2022/04/09 09:32:29;;;;;;;7.10;5.37;;;7.00;99.90;;;;;;5050849;28;20477;-48
2022/04/09 09:34:59;;;;;;;209.43;78.37;;;7.20;99.90;;;;;;5051173;28;20445;-44
2022/04/09 09:37:28;;;;;;;14.23;5.83;;;7.60;99.90;;;;;;5050862;28;20449;-45
2022/04/09 09:39:57;;;;;;;2.37;1.50;;;7.90;99.90;;;;;;5050665;28;20469;-45
2022/04/09 09:42:25;;;;;;;15.30;6.00;;;7.40;99.90;;;;;;5050935;28;20465;-45
2022/04/09 09:44:52;;;;;;;1.50;1.40;;;7.30;99.90;;;;;;5051233;28;20444;-46
2022/04/09 09:47:20;;;;;;;2.23;1.30;;;6.90;99.90;;;;;;5050931;28;20472;-45
2022/04/09 09:49:56;;;;;;;2.77;1.80;;;6.70;99.90;;;;;;5050818;28;20468;-45
2022/04/09 09:52:26;;;;;;;2.00;1.90;;;6.60;99.90;;;;;;5049692;28;20547;-48
2022/04/09 09:54:59;;;;;;;70.67;25.97;;;6.60;99.90;;;;;;5050152;28;20981;-45
2022/04/09 09:57:28;;;;;;;2.23;1.77;;;7.00;99.90;;;;;;5052556;28;20528;-45
2022/04/09 09:59:57;;;;;;;1.67;1.53;;;7.10;99.90;;;;;;5054272;28;20476;-49
2022/04/09 10:02:26;;;;;;;1.90;1.80;;;7.10;99.90;;;;;;5054506;28;20468;-45
2022/04/09 10:04:53;;;;;;;2.37;2.20;;;7.00;99.90;;;;;;5054532;28;20511;-44
2022/04/09 10:07:22;;;;;;;145.27;52.97;;;7.40;99.90;;;;;;5054555;28;20518;-45
2022/04/09 10:09:49;;;;;;;4.73;3.43;;;7.50;99.90;;;;;;5053878;28;20447;-44
2022/04/09 10:12:20;;;;;;;35.23;14.50;;;8.00;99.90;;;;;;5054724;28;21043;-48
2022/04/09 10:14:52;;;;;;;61.83;24.37;;;8.60;99.90;;;;;;5054508;28;20743;-47
2022/04/09 10:17:20;;;;;;;279.83;98.50;;;8.60;99.90;;;;;;5054616;28;20533;-45
2022/04/09 10:19:54;;;;;;;5.63;4.60;;;8.90;99.90;;;;;;5054348;28;20445;-45
2022/04/09 10:22:23;;;;;;;2.50;2.30;;;9.00;98.00;;;;;;5054386;28;20832;-44
2022/04/09 10:24:51;;;;;;;2.10;1.90;;;8.50;99.90;;;;;;5054237;28;20453;-45
2022/04/09 10:27:43;;;;;;;2.57;2.37;;;8.50;99.90;;;;;;5054051;28;20464;-45
2022/04/09 10:30:21;;;;;;;2.40;1.90;;;8.30;99.90;;;;;;5054205;28;20441;-45
2022/04/09 10:32:51;;;;;;;2.67;2.10;;;8.30;99.90;;;;;;5053730;28;21246;-45
2022/04/09 10:35:46;;;;;;;1.60;1.50;;;8.40;99.90;;;;;;5054140;28;20449;-45
2022/04/09 10:38:20;;;;;;;2.57;2.37;;;8.10;98.10;;;;;;5052922;28;20492;-45
2022/04/09 10:41:25;;;;;;;2.27;2.07;;;7.90;99.20;;;;;;5053738;28;20525;-46
2022/04/09 10:43:57;;;;;;;10.93;8.23;;;7.90;98.80;;;;;;5054091;28;20560;-47
2022/04/09 10:46:39;;;;;;;2.30;2.10;;;7.90;99.30;;;;;;5053823;28;20451;-49
2022/04/09 10:49:26;;;;;;;3.10;1.90;;;7.80;99.90;;;;;;5051933;28;20441;-45
2022/04/09 10:52:18;;;;;;;2.90;2.10;;;7.90;99.90;;;;;;5052644;28;20445;-47
2022/04/09 10:55:20;;;;;;;1.93;1.83;;;7.90;98.50;;;;;;5050558;28;20496;-45
2022/04/09 10:57:48;;;;;;;3.43;1.70;;;8.10;99.90;;;;;;5050636;28;20480;-45
2022/04/09 11:00:43;;;;;;;2.30;2.10;;;8.10;98.20;;;;;;5052047;28;20567;-49
2022/04/09 11:03:15;;;;;;;2.30;2.10;;;8.00;97.20;;;;;;5051784;28;20544;-44
2022/04/09 11:05:43;;;;;;;3.37;2.03;;;7.90;98.00;;;;;;5053734;28;20540;-44
2022/04/09 11:08:14;;;;;;;2.43;2.23;;;8.00;98.90;;;;;;5053063;28;20453;-45
2022/04/09 11:10:42;;;;;;;2.10;1.90;;;7.90;97.50;;;;;;5053090;28;21092;-47
2022/04/09 11:13:12;;;;;;;1.70;1.60;;;8.00;98.50;;;;;;5053750;28;20483;-45
2022/04/09 11:15:43;;;;;;;2.30;2.10;;;8.00;98.30;;;;;;5052997;28;20460;-45
2022/04/09 11:18:10;;;;;;;2.80;2.30;;;8.10;97.30;;;;;;5053281;28;20479;-50
2022/04/09 11:20:38;;;;;;;3.80;2.13;;;8.10;98.00;;;;;;5053124;28;20482;-45
2022/04/09 11:23:12;;;;;;;2.37;2.17;;;8.30;96.60;;;;;;5053686;28;20492;-45
2022/04/09 11:25:42;;;;;;;4.30;2.40;;;8.20;97.80;;;;;;5053574;28;20490;-45
2022/04/09 11:28:13;;;;;;;4.23;2.53;;;8.20;96.40;;;;;;5053576;28;20450;-44
2022/04/09 11:30:53;;;;;;;3.70;2.50;;;7.90;94.90;;;;;;5053133;28;20530;-45
2022/04/09 11:33:20;;;;;;;2.70;2.50;;;7.80;95.50;;;;;;5053005;28;20496;-45
2022/04/09 11:35:47;;;;;;;2.87;2.47;;;7.80;95.10;;;;;;5053102;28;20495;-50
2022/04/09 11:38:15;;;;;;;2.90;2.43;;;7.60;95.70;;;;;;5053202;28;20445;-44
2022/04/09 11:40:46;;;;;;;2.50;2.30;;;7.50;95.90;;;;;;5052466;28;21027;-45
2022/04/09 11:43:14;;;;;;;2.83;2.57;;;7.50;97.60;;;;;;5052925;28;20465;-44
2022/04/09 11:45:44;;;;;;;94.77;20.37;;;7.50;96.60;;;;;;5053038;28;20463;-44
2022/04/09 11:48:15;;;;;;;3.47;3.00;;;7.30;96.50;;;;;;5052700;28;20868;-45
2022/04/09 11:50:43;;;;;;;3.13;2.83;;;7.40;97.00;;;;;;5052581;28;20930;-44
2022/04/09 11:53:10;;;;;;;4.93;2.30;;;7.40;96.30;;;;;;5052585;28;20502;-44
2022/04/09 11:55:37;;;;;;;3.37;3.07;;;7.40;95.30;;;;;;5052902;28;20442;-45
2022/04/09 11:58:04;;;;;;;3.10;2.77;;;7.30;95.60;;;;;;5052667;28;20963;-44
2022/04/09 12:00:35;;;;;;;3.17;2.67;;;7.40;95.90;;;;;;5052449;28;20560;-48
2022/04/09 12:03:04;;;;;;;2.47;2.27;;;7.10;97.70;;;;;;5052683;28;20461;-44
2022/04/09 12:05:36;;;;;;;2.87;2.60;;;7.30;95.60;;;;;;5052299;28;20854;-45
2022/04/09 12:08:05;;;;;;;3.63;2.10;;;7.40;95.90;;;;;;5052650;28;20445;-47
2022/04/09 12:10:32;;;;;;;2.97;2.67;;;7.50;95.40;;;;;;5052273;28;20445;-45
2022/04/09 12:13:00;;;;;;;2.33;1.97;;;7.40;97.00;;;;;;5052305;28;20501;-45
2022/04/09 12:15:29;;;;;;;2.43;2.20;;;7.40;96.30;;;;;;5052362;28;20516;-44
2022/04/09 12:17:56;;;;;;;2.13;1.77;;;7.50;94.80;;;;;;5052211;28;20446;-44
2022/04/09 12:20:36;;;;;;;9.23;5.17;;;7.70;96.30;;;;;;5050569;28;20476;-45
2022/04/09 12:23:05;;;;;;;25.03;13.03;;;8.20;94.70;;;;;;5052267;28;20527;-44
2022/04/09 12:25:39;;;;;;;2.80;2.47;;;8.40;93.70;;;;;;5051630;28;20441;-45
2022/04/09 12:28:22;;;;;;;3.60;3.30;;;8.10;94.40;;;;;;5052138;28;20449;-49
2022/04/09 12:30:51;;;;;;;3.50;2.50;;;8.20;93.80;;;;;;5051833;28;20961;-47
2022/04/09 12:33:19;;;;;;;2.57;2.10;;;8.10;91.80;;;;;;5051877;28;20473;-44
2022/04/09 12:35:47;;;;;;;1.77;1.67;;;8.00;94.50;;;;;;5051954;28;20526;-45
2022/04/09 12:38:34;;;;;;;2.10;1.90;;;7.90;92.30;;;;;;5052127;28;20473;-45
2022/04/09 12:41:01;;;;;;;1.97;1.87;;;8.00;92.40;;;;;;5051781;28;20542;-47
2022/04/09 12:43:41;;;;;;;3.57;1.97;;;8.10;92.10;;;;;;5088152;28;20615;-44
2022/04/09 12:46:09;;;;;;;1.73;1.63;;;8.30;91.80;;;;;;5088563;28;20444;-47
2022/04/09 12:48:45;;;;;;;1.77;1.67;;;8.20;91.10;;;;;;5088684;28;20820;-46
2022/04/09 12:51:14;;;;;;;2.10;1.90;;;8.10;88.80;;;;;;5088573;28;20525;-50
2022/04/09 12:53:42;;;;;;;2.07;1.70;;;8.10;90.30;;;;;;5088272;28;20509;-45
2022/04/09 12:56:10;;;;;;;3.10;1.87;;;7.80;90.50;;;;;;5111874;22;20475;-43
2022/04/09 12:58:40;;;;;;;1.73;1.63;;;7.80;90.90;;;;;;5067439;28;20506;-47
2022/04/09 13:01:08;;;;;;;2.57;2.17;;;7.80;90.10;;;;;;5067860;28;20485;-47
2022/04/09 13:03:35;;;;;;;2.20;2.00;;;7.90;91.90;;;;;;5068084;28;20524;-46